ロサンゼルス の空港の天気 - METARとTAF

ロサンゼルス国際空港 ( KLAX / LAX ) - アメリカ カリフォルニア州ロサンゼルス
飛行場実況気象(Metar)
観測時間09/24 20:53 PDT (09/25 03:53 UTC)
風向・風速西南西 3m/s
視程10km以上
天気現象
少しの雲 雲底高度 400m
気温17.8℃
湿度81%
気圧1012hPa
METARKLAX 250353Z 24005KT 10SM FEW013 18/14 A2989 RMK AO2 SLP120 T01780144 $
過去の天気等 Google飛行場航空写真 Wunderground天気予報

過去48時間のMETAR

飛行場予報(TAF)
発表時間: 9/24 17:57 PDT (9/25 00:57 UTC)
予報対象時間: 24日18時 PDT ~ 25日23時 PDT
風向・風速西 6m/s
視程10km以上
全天の8割程度の雲 雲底高度 370m
24日19時 PDT から
風向・風速西 4m/s
視程10km以上
全天の8割程度の雲 雲底高度 300m
24日23時 PDT から
風向・風速西 3m/s
視程10km以上
全天を覆う雲 雲底高度 460m
25日12時 PDT から
風向・風速西 4m/s
視程10km以上
全天の4割程度の雲 雲底高度 460m
25日14時 PDT から
風向・風速西 6m/s
視程10km以上
なし
25日21時 PDT から
風向・風速西 3m/s
視程10km以上
全天の4割程度の雲 雲底高度 240m
KLAX 250057Z 2501/2606 26012KT P6SM BKN012
FM250200 26008KT P6SM BKN010
FM250600 26005KT P6SM OVC015
FM251900 26008KT P6SM SCT015
FM252100 26012KT P6SM SKC
FM260400 26006KT P6SM SCT008